createdAt,value
2022-10-02T00:02:07.274Z,100831.66
2022-10-02T00:04:51.716Z,100829.91
2022-10-02T00:07:20.922Z,100829.91
2022-10-02T00:10:01.826Z,100827.09
2022-10-02T00:12:31.464Z,100821.19
2022-10-02T00:15:06.581Z,100817.25
2022-10-02T00:17:40.593Z,100808.22
2022-10-02T00:20:13.943Z,100809.97
2022-10-02T00:23:03.082Z,100815.19
2022-10-02T00:25:41.812Z,100808.00
2022-10-02T00:28:11.405Z,100811.41
2022-10-02T00:30:54.218Z,100799.16
2022-10-02T00:33:54.480Z,100795.72
2022-10-02T00:36:34.297Z,100789.09
2022-10-02T00:39:16.797Z,100778.81
2022-10-02T00:42:03.321Z,100782.28
2022-10-02T00:44:45.090Z,100795.59
2022-10-02T00:47:37.672Z,100800.69
2022-10-02T00:50:17.989Z,100802.00
2022-10-02T00:53:14.312Z,100784.88
2022-10-02T00:55:43.923Z,100784.88
2022-10-02T00:58:16.119Z,100754.91
2022-10-02T01:00:52.798Z,100748.94
2022-10-02T01:03:35.405Z,100746.28
2022-10-02T01:06:02.025Z,100739.41
2022-10-02T01:08:28.872Z,100740.72
2022-10-02T01:10:55.432Z,100740.72
2022-10-02T01:13:22.076Z,100747.00
2022-10-02T01:15:59.909Z,100747.19
2022-10-02T01:18:29.614Z,100753.34
2022-10-02T01:21:05.082Z,100746.50
2022-10-02T01:23:43.424Z,100758.19
2022-10-02T01:26:10.005Z,100766.84
2022-10-02T01:28:36.867Z,100754.63
2022-10-02T01:31:10.313Z,100751.06
2022-10-02T01:33:41.382Z,100749.47
2022-10-02T01:36:12.570Z,100747.00
2022-10-02T01:38:40.968Z,100752.59
2022-10-02T01:41:12.396Z,100749.34
2022-10-02T01:43:52.378Z,100757.16
2022-10-02T01:46:30.191Z,100745.38
2022-10-02T01:49:12.716Z,100740.84
2022-10-02T01:51:45.837Z,100741.94
2022-10-02T01:54:28.186Z,100733.97
2022-10-02T01:57:04.359Z,100739.28
2022-10-02T01:59:31.610Z,100738.53
2022-10-02T02:02:35.437Z,100741.97
2022-10-02T02:05:26.909Z,100745.50
2022-10-02T02:08:08.821Z,100736.34
2022-10-02T02:10:50.024Z,100725.19
2022-10-02T02:13:29.824Z,100718.97
2022-10-02T02:16:39.866Z,100720.56
2022-10-02T02:19:25.065Z,100723.28
2022-10-02T02:22:04.142Z,100711.56
2022-10-02T02:24:54.126Z,100699.41
2022-10-02T02:27:25.774Z,100687.78
2022-10-02T02:29:57.828Z,100675.72
2022-10-02T02:32:29.130Z,100671.53
2022-10-02T02:35:05.691Z,100674.28
2022-10-02T02:37:35.491Z,100680.44
2022-10-02T02:40:22.414Z,100684.03
2022-10-02T02:43:00.010Z,100693.41
2022-10-02T02:45:33.057Z,100701.34
2022-10-02T02:48:07.157Z,100692.34
2022-10-02T02:50:43.767Z,100681.22
2022-10-02T02:53:15.320Z,100700.25
2022-10-02T02:55:49.986Z,100696.06
2022-10-02T02:58:37.793Z,100699.28
2022-10-02T03:01:04.477Z,100696.59
2022-10-02T03:03:31.088Z,100699.34
2022-10-02T03:06:06.814Z,100695.72
2022-10-02T03:08:37.479Z,100680.91
2022-10-02T03:11:22.100Z,100675.00
2022-10-02T03:14:16.652Z,100701.94
2022-10-02T03:17:05.042Z,100682.75
2022-10-02T03:19:58.035Z,100679.97
2022-10-02T03:22:41.333Z,100681.44
2022-10-02T03:25:17.083Z,100677.94
2022-10-02T03:27:55.552Z,100663.25
2022-10-02T03:30:24.219Z,100654.53
2022-10-02T03:32:53.724Z,100655.50
2022-10-02T03:35:21.822Z,100648.63
2022-10-02T03:37:52.312Z,100661.69
2022-10-02T03:40:24.158Z,100664.25
2022-10-02T03:42:51.975Z,100671.06
2022-10-02T03:45:46.189Z,100666.81
2022-10-02T03:48:06.652Z,100660.00
2022-10-02T03:50:36.402Z,100660.44
2022-10-02T03:53:13.165Z,100643.00
2022-10-02T03:55:43.929Z,100649.44
2022-10-02T03:58:14.875Z,100668.44
2022-10-02T04:01:00.202Z,100668.44
2022-10-02T04:03:32.499Z,100678.66
2022-10-02T04:06:21.384Z,100668.78
2022-10-02T04:08:56.191Z,100674.09
2022-10-02T04:11:31.754Z,100668.97
2022-10-02T04:14:20.784Z,100675.75
2022-10-02T04:16:59.171Z,100691.25
2022-10-02T04:19:48.709Z,100693.91
2022-10-02T04:22:43.264Z,100679.22
2022-10-02T04:25:16.518Z,100681.53
2022-10-02T04:28:03.635Z,100676.72
2022-10-02T04:30:30.228Z,100677.03
2022-10-02T04:33:12.989Z,100662.81
2022-10-02T04:35:47.795Z,100656.06
2022-10-02T04:38:35.398Z,100639.00
2022-10-02T04:41:26.915Z,100637.19
2022-10-02T04:44:02.520Z,100626.72
2022-10-02T04:46:53.686Z,100605.28
2022-10-02T04:49:39.068Z,100628.00
2022-10-02T04:52:20.487Z,100651.19
2022-10-02T04:54:59.827Z,100657.25
2022-10-02T04:57:55.076Z,100666.50
2022-10-02T05:00:24.996Z,100672.56
2022-10-02T05:03:02.687Z,100677.03
2022-10-02T05:05:29.125Z,100696.91
2022-10-02T05:08:14.096Z,100703.78
2022-10-02T05:11:01.013Z,100710.88
2022-10-02T05:13:48.595Z,100721.13
2022-10-02T05:16:31.368Z,100721.09
2022-10-02T05:19:20.851Z,100723.56
2022-10-02T05:22:16.541Z,100716.75
2022-10-02T05:25:14.113Z,100717.72
2022-10-02T05:28:10.137Z,100701.81
2022-10-02T05:30:53.310Z,100693.13
2022-10-02T05:33:22.652Z,100694.97
2022-10-02T05:36:24.619Z,100705.66
2022-10-02T05:39:17.361Z,100715.81
2022-10-02T05:42:12.540Z,100721.84
2022-10-02T05:44:52.638Z,100726.00
2022-10-02T05:47:28.891Z,100741.00
2022-10-02T05:49:58.396Z,100764.31
2022-10-02T05:52:54.318Z,100760.81
2022-10-02T05:55:29.255Z,100779.03
2022-10-02T05:58:01.628Z,100783.16
2022-10-02T06:00:58.115Z,100771.25
2022-10-02T06:03:39.946Z,100790.03
2022-10-02T06:06:10.425Z,100786.06
2022-10-02T06:08:44.382Z,100784.00
2022-10-02T06:11:17.705Z,100770.38
2022-10-02T06:13:50.087Z,100754.16
2022-10-02T06:16:38.471Z,100760.31
2022-10-02T06:19:31.212Z,100754.31
2022-10-02T06:22:07.982Z,100782.09
2022-10-02T06:24:38.965Z,100776.69
2022-10-02T06:27:14.883Z,100761.09
2022-10-02T06:29:48.421Z,100770.69
2022-10-02T06:32:38.982Z,100760.31
2022-10-02T06:35:17.414Z,100773.75
2022-10-02T06:38:16.886Z,100790.13
2022-10-02T06:40:50.742Z,100800.50
2022-10-02T06:43:48.230Z,100802.56
2022-10-02T06:46:39.998Z,100827.88
2022-10-02T06:49:17.863Z,100819.75
2022-10-02T06:52:00.706Z,100817.28
2022-10-02T06:54:45.266Z,100828.56
2022-10-02T06:57:37.771Z,100829.84
2022-10-02T07:00:12.340Z,100814.72
2022-10-02T07:02:45.069Z,100820.69
2022-10-02T07:05:24.460Z,100826.09
2022-10-02T07:08:10.160Z,100804.59
2022-10-02T07:10:48.533Z,100818.09
2022-10-02T07:13:53.486Z,100819.63
2022-10-02T07:16:38.853Z,100812.91
2022-10-02T07:19:24.632Z,100813.13
2022-10-02T07:22:45.697Z,100808.13
2022-10-02T07:25:58.226Z,100802.19
2022-10-02T07:28:39.576Z,100817.81
2022-10-02T07:31:35.741Z,100825.06
2022-10-02T07:34:18.098Z,100845.84
2022-10-02T07:37:09.045Z,100852.66
2022-10-02T07:40:10.231Z,100835.03
2022-10-02T07:43:10.774Z,100826.81
2022-10-02T07:45:43.472Z,100833.97
2022-10-02T07:48:25.045Z,100848.22
2022-10-02T07:51:31.167Z,100845.84
2022-10-02T07:54:15.644Z,100872.56
2022-10-02T07:56:45.399Z,100867.34
2022-10-02T07:59:16.714Z,100864.16
2022-10-02T08:01:45.440Z,100863.13
2022-10-02T08:04:24.474Z,100853.78
2022-10-02T08:07:01.317Z,100855.28
2022-10-02T08:09:27.761Z,100870.19
2022-10-02T08:12:00.395Z,100880.06
2022-10-02T08:14:38.782Z,100904.88
2022-10-02T08:17:25.349Z,100914.00
2022-10-02T08:19:52.740Z,100922.25
2022-10-02T08:22:38.628Z,100930.69
2022-10-02T08:25:20.318Z,100939.53
2022-10-02T08:28:07.691Z,100937.63
2022-10-02T08:30:34.387Z,100933.88
2022-10-02T08:33:00.950Z,100934.66
2022-10-02T08:35:43.459Z,100935.75
2022-10-02T08:38:36.178Z,100926.63
2022-10-02T08:41:27.901Z,100923.50
2022-10-02T08:44:14.051Z,100923.97
2022-10-02T08:47:05.411Z,100922.88
2022-10-02T08:49:56.731Z,100920.75
2022-10-02T08:52:42.014Z,100910.28
2022-10-02T08:55:27.259Z,100905.84
2022-10-02T08:58:05.724Z,100913.72
2022-10-02T09:00:51.022Z,100910.53
2022-10-02T09:03:35.702Z,100906.31
2022-10-02T09:06:15.434Z,100894.50
2022-10-02T09:09:19.711Z,100893.16
2022-10-02T09:12:45.228Z,100892.16
2022-10-02T09:15:18.675Z,100885.84
2022-10-02T09:18:03.591Z,100881.50
2022-10-02T09:20:53.970Z,100868.66
2022-10-02T09:23:55.229Z,100878.28
2022-10-02T09:26:57.705Z,100873.91
2022-10-02T09:29:44.337Z,100879.94
2022-10-02T09:32:35.714Z,100862.53
2022-10-02T09:35:37.535Z,100864.38
2022-10-02T09:38:29.781Z,100860.75
2022-10-02T09:41:24.564Z,100853.25
2022-10-02T09:44:10.028Z,100853.00
2022-10-02T09:46:55.104Z,100854.19
2022-10-02T09:49:27.659Z,100864.91
2022-10-02T09:52:09.909Z,100857.34
2022-10-02T09:54:36.385Z,100859.94
2022-10-02T09:57:32.055Z,100869.00
2022-10-02T10:00:20.044Z,100879.19
2022-10-02T10:03:13.022Z,100874.28
2022-10-02T10:05:58.181Z,100877.84
2022-10-02T10:08:34.317Z,100880.38
2022-10-02T10:11:18.265Z,100876.09
2022-10-02T10:14:20.248Z,100879.72
2022-10-02T10:17:07.373Z,100873.47
2022-10-02T10:19:51.823Z,100875.06
2022-10-02T10:22:48.962Z,100875.53
2022-10-02T10:25:28.324Z,100868.72
2022-10-02T10:27:54.850Z,100881.75
2022-10-02T10:30:40.085Z,100869.63
2022-10-02T10:33:45.984Z,100868.75
2022-10-02T10:36:46.969Z,100851.53
2022-10-02T10:39:31.886Z,100848.97
2022-10-02T10:42:24.279Z,100855.13
2022-10-02T10:45:20.741Z,100860.38
2022-10-02T10:47:53.269Z,100858.66
2022-10-02T10:50:42.791Z,100855.16
2022-10-02T10:53:47.041Z,100851.53
2022-10-02T10:56:37.366Z,100852.50
2022-10-02T10:59:42.285Z,100848.22
2022-10-02T11:02:53.217Z,100849.03
2022-10-02T11:05:40.687Z,100838.50
2022-10-02T11:08:25.865Z,100841.28
2022-10-02T11:11:10.389Z,100844.78
2022-10-02T11:13:46.037Z,100846.50
2022-10-02T11:16:38.926Z,100838.69
2022-10-02T11:19:05.430Z,100837.00
2022-10-02T11:21:35.288Z,100841.34
2022-10-02T11:24:14.744Z,100840.41
2022-10-02T11:26:47.535Z,100837.75
2022-10-02T11:29:47.276Z,100843.06
2022-10-02T11:32:36.824Z,100837.84
2022-10-02T11:35:15.243Z,100837.84
2022-10-02T11:38:10.682Z,100838.72
2022-10-02T11:40:49.202Z,100828.25
2022-10-02T11:44:00.552Z,100820.44
2022-10-02T11:46:39.584Z,100819.59
2022-10-02T11:49:42.655Z,100817.84
2022-10-02T11:52:37.697Z,100806.56
2022-10-02T11:55:28.189Z,100807.44
2022-10-02T11:58:09.456Z,100809.16
2022-10-02T12:00:56.429Z,100799.59
2022-10-02T12:03:31.538Z,100787.44
2022-10-02T12:06:02.819Z,100777.00
2022-10-02T12:08:44.077Z,100763.97
2022-10-02T12:11:35.615Z,100773.53
2022-10-02T12:14:16.872Z,100766.59
2022-10-02T12:17:06.669Z,100764.84
2022-10-02T12:20:04.595Z,100774.41
2022-10-02T12:23:07.430Z,100772.66
2022-10-02T12:26:22.394Z,100771.81
2022-10-02T12:28:56.149Z,100763.13
2022-10-02T12:31:32.817Z,100760.50
2022-10-02T12:34:24.371Z,100760.53
2022-10-02T12:37:15.460Z,100762.25
2022-10-02T12:40:10.209Z,100765.72
2022-10-02T12:42:51.694Z,100753.56
2022-10-02T12:45:37.223Z,100752.66
2022-10-02T12:48:26.225Z,100741.41
2022-10-02T12:51:05.968Z,100742.22
2022-10-02T12:53:58.705Z,100730.88
2022-10-02T12:56:53.143Z,100728.34
2022-10-02T12:59:44.533Z,100725.59
2022-10-02T13:03:00.295Z,100710.75
2022-10-02T13:05:52.979Z,100721.19
2022-10-02T13:08:32.287Z,100708.16
2022-10-02T13:11:19.915Z,100703.84
2022-10-02T13:14:22.735Z,100691.56
2022-10-02T13:17:00.390Z,100696.91
2022-10-02T13:19:32.160Z,100687.25
2022-10-02T13:22:37.126Z,100687.19
2022-10-02T13:25:34.419Z,100681.09
2022-10-02T13:28:49.303Z,100677.47
2022-10-02T13:31:37.146Z,100680.09
2022-10-02T13:34:26.607Z,100681.88
2022-10-02T13:37:31.485Z,100672.19
2022-10-02T13:40:22.237Z,100660.75
2022-10-02T13:43:09.171Z,100656.41
2022-10-02T13:46:03.304Z,100654.63
2022-10-02T13:48:48.502Z,100658.31
2022-10-02T13:51:28.960Z,100658.25
2022-10-02T13:54:04.815Z,100663.44
2022-10-02T13:56:55.325Z,100659.19
2022-10-02T13:59:53.297Z,100652.84
2022-10-02T14:02:25.494Z,100645.00
2022-10-02T14:05:04.387Z,100649.50
2022-10-02T14:07:58.825Z,100653.03
2022-10-02T14:10:42.408Z,100642.59
2022-10-02T14:13:30.966Z,100641.75
2022-10-02T14:16:25.632Z,100631.19
2022-10-02T14:18:52.112Z,100632.97
2022-10-02T14:21:55.888Z,100628.53
2022-10-02T14:24:56.070Z,100635.66
2022-10-02T14:27:31.631Z,100631.19
2022-10-02T14:30:07.111Z,100612.03
2022-10-02T14:32:51.692Z,100611.00
2022-10-02T14:35:43.459Z,100608.50
2022-10-02T14:38:34.533Z,100602.31
2022-10-02T14:41:31.728Z,100606.00
2022-10-02T14:44:29.697Z,100598.59
2022-10-02T14:47:15.299Z,100599.31
2022-10-02T14:49:45.058Z,100598.66
2022-10-02T14:52:14.375Z,100599.59
2022-10-02T14:54:57.139Z,100601.34
2022-10-02T14:57:26.584Z,100599.69
2022-10-02T15:00:14.711Z,100600.41
2022-10-02T15:02:44.775Z,100597.78
2022-10-02T15:05:33.200Z,100598.63
2022-10-02T15:08:00.125Z,100590.91
2022-10-02T15:10:33.099Z,100590.06
2022-10-02T15:13:12.943Z,100596.78
2022-10-02T15:16:16.879Z,100604.63
2022-10-02T15:18:57.454Z,100603.84
2022-10-02T15:21:56.386Z,100596.03
2022-10-02T15:24:52.408Z,100584.56
2022-10-02T15:27:25.954Z,100588.13
2022-10-02T15:30:04.749Z,100597.78
2022-10-02T15:32:55.752Z,100592.41
2022-10-02T15:35:39.338Z,100591.59
2022-10-02T15:38:15.004Z,100588.97
2022-10-02T15:40:57.049Z,100588.03
2022-10-02T15:43:49.601Z,100596.28
2022-10-02T15:46:34.781Z,100594.34
2022-10-02T15:49:31.006Z,100596.03
2022-10-02T15:52:16.330Z,100593.38
2022-10-02T15:54:56.687Z,100589.13
2022-10-02T15:58:04.142Z,100591.72
2022-10-02T16:00:56.383Z,100599.53
2022-10-02T16:03:43.134Z,100597.88
2022-10-02T16:06:35.662Z,100594.56
2022-10-02T16:09:38.739Z,100602.44
2022-10-02T16:12:26.284Z,100598.00
2022-10-02T16:15:23.673Z,100586.53
2022-10-02T16:18:16.550Z,100600.41
2022-10-02T16:21:24.955Z,100596.03
2022-10-02T16:24:03.276Z,100595.75
2022-10-02T16:27:00.840Z,100598.34
2022-10-02T16:29:58.296Z,100596.81
2022-10-02T16:32:24.771Z,100606.94
2022-10-02T16:35:20.309Z,100601.25
2022-10-02T16:37:59.933Z,100600.50
2022-10-02T16:40:52.757Z,100594.91
2022-10-02T16:43:58.178Z,100596.78
2022-10-02T16:46:34.618Z,100598.28
2022-10-02T16:49:16.918Z,100601.13
2022-10-02T16:52:22.358Z,100589.88
2022-10-02T16:55:00.950Z,100594.41
2022-10-02T16:58:08.346Z,100594.38
2022-10-02T17:00:49.460Z,100599.16
2022-10-02T17:03:45.518Z,100584.22
2022-10-02T17:06:28.151Z,100586.53
2022-10-02T17:09:07.107Z,100604.41
2022-10-02T17:11:46.193Z,100599.22
2022-10-02T17:14:35.144Z,100594.94
2022-10-02T17:17:11.323Z,100607.13
2022-10-02T17:20:04.949Z,100614.19
2022-10-02T17:22:34.685Z,100614.13
2022-10-02T17:25:17.847Z,100616.81
2022-10-02T17:27:52.688Z,100615.00
2022-10-02T17:30:27.114Z,100614.25
2022-10-02T17:32:56.690Z,100622.09
2022-10-02T17:35:39.249Z,100624.72
2022-10-02T17:38:12.401Z,100619.53
2022-10-02T17:40:48.737Z,100629.88
2022-10-02T17:43:39.057Z,100631.56
2022-10-02T17:46:58.869Z,100629.91
2022-10-02T17:49:52.299Z,100639.59
2022-10-02T17:52:52.786Z,100639.56
2022-10-02T17:56:18.235Z,100637.81
2022-10-02T17:58:56.001Z,100632.63
2022-10-02T18:01:52.874Z,100630.84
2022-10-02T18:04:27.976Z,100641.38
2022-10-02T18:07:05.135Z,100637.00
2022-10-02T18:09:52.369Z,100642.16
2022-10-02T18:12:40.031Z,100638.78
2022-10-02T18:15:06.639Z,100637.03
2022-10-02T18:17:41.353Z,100641.38
2022-10-02T18:20:19.622Z,100637.88
2022-10-02T18:23:23.753Z,100642.25
2022-10-02T18:26:12.620Z,100651.78
2022-10-02T18:29:17.047Z,100648.34
2022-10-02T18:32:14.439Z,100655.31
2022-10-02T18:34:50.155Z,100657.03
2022-10-02T18:37:55.222Z,100657.03
2022-10-02T18:40:35.108Z,100654.47
2022-10-02T18:43:35.514Z,100650.97
2022-10-02T18:46:24.073Z,100658.81
2022-10-02T18:49:15.566Z,100659.69
2022-10-02T18:51:45.085Z,100654.47
2022-10-02T18:54:22.091Z,100657.06
2022-10-02T18:57:16.312Z,100665.78
2022-10-02T18:59:49.149Z,100672.75
2022-10-02T19:02:38.749Z,100664.06
2022-10-02T19:05:24.165Z,100662.31
2022-10-02T19:07:57.730Z,100658.84
2022-10-02T19:10:29.378Z,100662.31
2022-10-02T19:13:01.930Z,100671.00
2022-10-02T19:15:33.093Z,100672.75
2022-10-02T19:18:05.791Z,100670.16
2022-10-02T19:20:45.214Z,100672.72
2022-10-02T19:23:20.190Z,100671.88
2022-10-02T19:25:50.594Z,100677.09
2022-10-02T19:28:25.501Z,100667.53
2022-10-02T19:30:57.331Z,100679.66
2022-10-02T19:33:33.650Z,100683.09
2022-10-02T19:36:05.899Z,100686.59
2022-10-02T19:38:37.344Z,100684.00
2022-10-02T19:41:13.766Z,100686.59
2022-10-02T19:43:58.783Z,100685.69
2022-10-02T19:46:34.539Z,100687.44
2022-10-02T19:49:01.992Z,100690.03
2022-10-02T19:51:28.631Z,100690.06
2022-10-02T19:54:04.936Z,100683.09
2022-10-02T19:56:42.656Z,100690.91
2022-10-02T19:59:20.023Z,100686.50
2022-10-02T20:01:54.081Z,100689.16
2022-10-02T20:04:24.589Z,100688.25
2022-10-02T20:06:56.016Z,100693.47
2022-10-02T20:09:54.758Z,100684.78
2022-10-02T20:12:31.155Z,100691.75
2022-10-02T20:15:01.197Z,100690.81
2022-10-02T20:17:27.783Z,100693.44
2022-10-02T20:20:04.932Z,100698.63
2022-10-02T20:22:52.398Z,100692.56
2022-10-02T20:25:28.960Z,100689.94
2022-10-02T20:28:05.156Z,100688.19
2022-10-02T20:30:41.728Z,100691.59
2022-10-02T20:33:31.186Z,100689.00
2022-10-02T20:36:06.785Z,100681.19
2022-10-02T20:38:44.655Z,100677.66
2022-10-02T20:41:21.409Z,100676.00
2022-10-02T20:44:06.156Z,100676.78
2022-10-02T20:47:17.024Z,100675.94
2022-10-02T20:49:46.632Z,100668.13
2022-10-02T20:52:40.335Z,100665.53
2022-10-02T20:55:27.152Z,100668.09
2022-10-02T20:58:25.280Z,100665.47
2022-10-02T21:01:20.077Z,100663.75
2022-10-02T21:04:14.173Z,100664.59
2022-10-02T21:07:04.155Z,100668.91
2022-10-02T21:09:51.235Z,100667.94
2022-10-02T21:12:26.921Z,100673.22
2022-10-02T21:15:12.093Z,100673.22
2022-10-02T21:18:00.173Z,100674.09
2022-10-02T21:21:07.897Z,100674.06
2022-10-02T21:23:53.009Z,100678.44
2022-10-02T21:26:51.623Z,100675.72
2022-10-02T21:29:53.152Z,100666.16
2022-10-02T21:32:56.855Z,100673.84
2022-10-02T21:35:31.255Z,100669.44
2022-10-02T21:38:12.989Z,100667.75
2022-10-02T21:41:14.967Z,100670.44
2022-10-02T21:43:53.164Z,100670.38
2022-10-02T21:46:38.927Z,100668.66
2022-10-02T21:49:43.007Z,100671.34
2022-10-02T21:52:28.263Z,100667.94
2022-10-02T21:55:16.020Z,100666.22
2022-10-02T21:58:07.037Z,100666.94
2022-10-02T22:01:02.619Z,100666.84
2022-10-02T22:03:57.883Z,100668.59
2022-10-02T22:06:31.262Z,100664.25
2022-10-02T22:09:19.689Z,100661.38
2022-10-02T22:12:01.099Z,100664.78
2022-10-02T22:14:38.324Z,100653.69
2022-10-02T22:17:21.527Z,100656.16
2022-10-02T22:20:07.259Z,100657.91
2022-10-02T22:23:20.439Z,100662.03
2022-10-02T22:26:04.516Z,100653.28
2022-10-02T22:28:40.243Z,100658.47
2022-10-02T22:31:24.777Z,100655.97
2022-10-02T22:33:54.176Z,100655.97
2022-10-02T22:36:30.177Z,100649.25
2022-10-02T22:39:14.164Z,100656.03
2022-10-02T22:41:48.982Z,100655.19
2022-10-02T22:44:15.430Z,100650.88
2022-10-02T22:47:20.646Z,100661.22
2022-10-02T22:49:51.347Z,100654.34
2022-10-02T22:52:47.298Z,100660.22
2022-10-02T22:55:21.087Z,100656.66
2022-10-02T22:57:57.766Z,100655.78
2022-10-02T23:00:38.334Z,100646.34
2022-10-02T23:03:19.435Z,100642.91
2022-10-02T23:06:14.396Z,100645.34
2022-10-02T23:08:45.159Z,100642.94
2022-10-02T23:11:22.108Z,100637.66
2022-10-02T23:13:55.100Z,100627.19
2022-10-02T23:16:42.815Z,100615.69
2022-10-02T23:19:38.774Z,100619.06
2022-10-02T23:22:22.138Z,100613.09
2022-10-02T23:25:30.689Z,100617.63
2022-10-02T23:28:25.265Z,100630.97
2022-10-02T23:31:23.041Z,100634.97
2022-10-02T23:34:10.693Z,100617.41
2022-10-02T23:36:46.311Z,100620.16
2022-10-02T23:39:22.463Z,100617.63
2022-10-02T23:41:53.433Z,100596.53
2022-10-02T23:44:41.726Z,100593.00
2022-10-02T23:47:23.424Z,100595.56
2022-10-02T23:49:54.848Z,100598.50
2022-10-02T23:52:56.502Z,100598.28
2022-10-02T23:55:37.499Z,100589.59
2022-10-02T23:58:13.609Z,100593.03
